createdAt,value
2018-12-04T00:00:47.916Z,99774
2018-12-04T00:03:16.747Z,99763
2018-12-04T00:05:45.576Z,99770
2018-12-04T00:08:14.410Z,99763
2018-12-04T00:10:43.237Z,99770
2018-12-04T00:13:12.063Z,99762
2018-12-04T00:15:40.890Z,99769
2018-12-04T00:18:09.712Z,99776
2018-12-04T00:20:38.540Z,99782
2018-12-04T00:23:07.374Z,99785
2018-12-04T00:25:36.205Z,99778
2018-12-04T00:28:05.030Z,99779
2018-12-04T00:30:34.605Z,99790
2018-12-04T00:33:03.431Z,99799
2018-12-04T00:35:32.264Z,99783
2018-12-04T00:38:01.100Z,99792
2018-12-04T00:40:30.664Z,99792
2018-12-04T00:42:59.498Z,99798
2018-12-04T00:45:29.106Z,99810
2018-12-04T00:47:58.676Z,99810
2018-12-04T00:50:27.504Z,99826
2018-12-04T00:52:57.073Z,99823
2018-12-04T00:55:25.902Z,99825
2018-12-04T00:57:54.734Z,99832
2018-12-04T01:00:23.563Z,99837
2018-12-04T01:02:53.129Z,99827
2018-12-04T01:05:21.955Z,99829
2018-12-04T01:07:51.526Z,99835
2018-12-04T01:10:20.354Z,99850
2018-12-04T01:12:49.921Z,99851
2018-12-04T01:15:18.747Z,99859
2018-12-04T01:17:47.589Z,99862
2018-12-04T01:20:16.425Z,99870
2018-12-04T01:22:45.257Z,99871
2018-12-04T01:25:14.082Z,99870
2018-12-04T01:27:43.512Z,99873
2018-12-04T01:30:13.078Z,99883
2018-12-04T01:32:41.899Z,99884
2018-12-04T01:35:10.741Z,99888
2018-12-04T01:37:39.571Z,99898
2018-12-04T01:40:08.407Z,99902
2018-12-04T01:42:37.233Z,99901
2018-12-04T01:45:06.418Z,99898
2018-12-04T01:47:34.902Z,99901
2018-12-04T01:50:03.737Z,99904
2018-12-04T01:52:32.600Z,99896
2018-12-04T01:55:02.181Z,99907
2018-12-04T01:57:31.012Z,99907
2018-12-04T02:00:00.584Z,99911
2018-12-04T02:02:29.410Z,99913
2018-12-04T02:04:58.980Z,99916
2018-12-04T02:07:27.811Z,99929
2018-12-04T02:09:56.643Z,99924
2018-12-04T02:12:25.466Z,99932
2018-12-04T02:14:54.293Z,99922
2018-12-04T02:17:23.127Z,99924
2018-12-04T02:19:51.953Z,99927
2018-12-04T02:22:20.787Z,99928
2018-12-04T02:24:49.621Z,99924
2018-12-04T02:27:18.446Z,99935
2018-12-04T02:29:47.272Z,99932
2018-12-04T02:32:16.095Z,99932
2018-12-04T02:34:44.933Z,99943
2018-12-04T02:37:13.762Z,99940
2018-12-04T02:39:42.607Z,99946
2018-12-04T02:42:11.433Z,99947
2018-12-04T02:44:41.007Z,99960
2018-12-04T02:47:09.830Z,99959
2018-12-04T02:49:38.662Z,99968
2018-12-04T02:52:07.480Z,99970
2018-12-04T02:54:36.309Z,99961
2018-12-04T02:57:05.149Z,99969
2018-12-04T02:59:33.972Z,99973
2018-12-04T03:02:02.876Z,99977
2018-12-04T03:04:31.664Z,99975
2018-12-04T03:07:00.491Z,99976
2018-12-04T03:09:29.324Z,99984
2018-12-04T03:11:58.145Z,99992
2018-12-04T03:14:26.968Z,99988
2018-12-04T03:16:55.803Z,100007
2018-12-04T03:19:25.374Z,99996
2018-12-04T03:21:54.215Z,100008
2018-12-04T03:24:23.057Z,100013
2018-12-04T03:26:51.901Z,100015
2018-12-04T03:29:20.735Z,100028
2018-12-04T03:31:49.575Z,100035
2018-12-04T03:34:18.456Z,100025
2018-12-04T03:36:47.290Z,100020
2018-12-04T03:39:16.121Z,100025
2018-12-04T03:41:45.699Z,100025
2018-12-04T03:44:14.533Z,100043
2018-12-04T03:46:43.367Z,100044
2018-12-04T03:49:12.193Z,100044
2018-12-04T03:51:41.793Z,100044
2018-12-04T03:54:11.366Z,100055
2018-12-04T03:56:40.206Z,100061
2018-12-04T03:59:09.044Z,100070
2018-12-04T04:01:37.878Z,100078
2018-12-04T04:04:06.719Z,100090
2018-12-04T04:06:35.555Z,100078
2018-12-04T04:09:05.147Z,100081
2018-12-04T04:11:33.988Z,100078
2018-12-04T04:14:02.826Z,100088
2018-12-04T04:16:32.401Z,100087
2018-12-04T04:19:01.235Z,100077
2018-12-04T04:21:30.810Z,100093
2018-12-04T04:23:59.663Z,100096
2018-12-04T04:26:28.501Z,100093
2018-12-04T04:28:57.341Z,100106
2018-12-04T04:31:26.176Z,100120
2018-12-04T04:33:55.026Z,100124
2018-12-04T04:36:23.854Z,100133
2018-12-04T04:38:52.696Z,100138
2018-12-04T04:41:21.530Z,100138
2018-12-04T04:43:50.376Z,100131
2018-12-04T04:46:19.224Z,100147
2018-12-04T04:48:48.061Z,100155
2018-12-04T04:51:16.944Z,100162
2018-12-04T04:53:46.486Z,100172
2018-12-04T04:56:15.321Z,100180
2018-12-04T04:58:44.303Z,100191
2018-12-04T05:01:13.583Z,100189
2018-12-04T05:03:43.167Z,100193
2018-12-04T05:06:11.998Z,100193
2018-12-04T05:08:40.851Z,100193
2018-12-04T05:11:10.440Z,100194
2018-12-04T05:13:39.266Z,100205
2018-12-04T05:16:08.119Z,100206
2018-12-04T05:18:36.958Z,100210
2018-12-04T05:21:05.799Z,100212
2018-12-04T05:23:34.651Z,100223
2018-12-04T05:26:03.488Z,100226
2018-12-04T05:28:32.321Z,100219
2018-12-04T05:31:01.181Z,100234
2018-12-04T05:33:30.019Z,100235
2018-12-04T05:35:58.852Z,100238
2018-12-04T05:38:27.684Z,100244
2018-12-04T05:40:56.529Z,100244
2018-12-04T05:43:25.367Z,100251
2018-12-04T05:45:54.212Z,100252
2018-12-04T05:48:23.048Z,100264
2018-12-04T05:50:51.879Z,100264
2018-12-04T05:53:29.269Z,100266
2018-12-04T05:55:58.078Z,100268
2018-12-04T05:58:27.665Z,100275
2018-12-04T06:00:56.496Z,100270
2018-12-04T06:03:25.323Z,100272
2018-12-04T06:05:54.146Z,100271
2018-12-04T06:08:23.729Z,100270
2018-12-04T06:10:52.559Z,100282
2018-12-04T06:13:21.392Z,100293
2018-12-04T06:15:50.225Z,100297
2018-12-04T06:18:19.076Z,100304
2018-12-04T06:20:47.901Z,100309
2018-12-04T06:23:16.742Z,100319
2018-12-04T06:25:45.571Z,100325
2018-12-04T06:28:15.146Z,100338
2018-12-04T06:30:43.979Z,100338
2018-12-04T06:33:12.811Z,100339
2018-12-04T06:35:41.642Z,100356
2018-12-04T06:38:10.475Z,100359
2018-12-04T06:40:39.302Z,100364
2018-12-04T06:43:08.140Z,100373
2018-12-04T06:45:36.978Z,100381
2018-12-04T06:48:05.809Z,100391
2018-12-04T06:50:34.653Z,100399
2018-12-04T06:53:03.491Z,100403
2018-12-04T06:55:33.054Z,100414
2018-12-04T06:58:01.891Z,100411
2018-12-04T07:00:30.718Z,100423
2018-12-04T07:02:59.549Z,100431
2018-12-04T07:05:29.131Z,100440
2018-12-04T07:07:57.964Z,100435
2018-12-04T07:10:26.802Z,100447
2018-12-04T07:12:55.632Z,100446
2018-12-04T07:15:24.623Z,100445
2018-12-04T07:17:53.455Z,100455
2018-12-04T07:20:22.271Z,100451
2018-12-04T07:22:51.092Z,100471
2018-12-04T07:25:19.924Z,100461
2018-12-04T07:27:48.744Z,100471
2018-12-04T07:30:17.598Z,100475
2018-12-04T07:32:46.426Z,100480
2018-12-04T07:35:16.114Z,100482
2018-12-04T07:37:44.935Z,100497
2018-12-04T07:40:14.517Z,100485
2018-12-04T07:42:43.354Z,100490
2018-12-04T07:45:12.671Z,100497
2018-12-04T07:47:41.032Z,100516
2018-12-04T07:50:09.876Z,100520
2018-12-04T07:52:38.719Z,100522
2018-12-04T07:55:07.546Z,100536
2018-12-04T07:57:36.383Z,100545
2018-12-04T08:00:05.217Z,100552
2018-12-04T08:02:34.063Z,100563
2018-12-04T08:05:02.903Z,100564
2018-12-04T08:07:32.321Z,100559
2018-12-04T08:10:01.903Z,100575
2018-12-04T08:12:30.735Z,100591
2018-12-04T08:14:59.564Z,100583
2018-12-04T08:17:28.392Z,100599
2018-12-04T08:19:57.969Z,100611
2018-12-04T08:22:26.843Z,100616
2018-12-04T08:24:55.653Z,100624
2018-12-04T08:27:24.481Z,100636
2018-12-04T08:29:54.055Z,100644
2018-12-04T08:32:22.892Z,100650
2018-12-04T08:34:51.829Z,100644
2018-12-04T08:37:20.658Z,100646
2018-12-04T08:39:49.512Z,100646
2018-12-04T08:42:18.336Z,100644
2018-12-04T08:44:47.186Z,100656
2018-12-04T08:47:16.016Z,100672
2018-12-04T08:49:44.855Z,100664
2018-12-04T08:52:13.680Z,100674
2018-12-04T08:54:42.514Z,100684
2018-12-04T08:57:11.360Z,100689
2018-12-04T08:59:40.941Z,100698
2018-12-04T09:02:10.364Z,100698
2018-12-04T09:04:39.944Z,100698
2018-12-04T09:07:08.784Z,100708
2018-12-04T09:09:37.648Z,100708
2018-12-04T09:12:06.491Z,100727
2018-12-04T09:14:38.148Z,100725
2018-12-04T09:17:04.908Z,100732
2018-12-04T09:19:33.754Z,100730
2018-12-04T09:22:02.619Z,100735
2018-12-04T09:24:31.403Z,100738
2018-12-04T09:27:05.521Z,100739
2018-12-04T09:29:29.850Z,100754
2018-12-04T09:31:58.681Z,100751
2018-12-04T09:34:29.970Z,100760
2018-12-04T09:36:56.340Z,100763
2018-12-04T09:39:25.168Z,100763
2018-12-04T09:41:54.007Z,100779
2018-12-04T09:44:22.890Z,100788
2018-12-04T09:47:04.091Z,100785
2018-12-04T09:49:32.978Z,100784
2018-12-04T09:52:02.575Z,100784
2018-12-04T09:54:31.401Z,100797
2018-12-04T09:57:00.234Z,100795
2018-12-04T09:59:29.069Z,100787
2018-12-04T10:01:58.681Z,100798
2018-12-04T10:04:28.269Z,100797
2018-12-04T10:06:57.128Z,100790
2018-12-04T10:09:25.958Z,100785
2018-12-04T10:11:55.557Z,100794
2018-12-04T10:14:24.393Z,100802
2018-12-04T10:16:53.223Z,100813
2018-12-04T10:19:22.658Z,100811
2018-12-04T10:21:51.562Z,100817
2018-12-04T10:24:20.357Z,100824
2018-12-04T10:26:49.194Z,100826
2018-12-04T10:29:18.050Z,100817
2018-12-04T10:31:46.883Z,100838
2018-12-04T10:34:16.296Z,100839
2018-12-04T10:36:45.129Z,100843
2018-12-04T10:39:14.026Z,100848
2018-12-04T10:41:42.860Z,100851
2018-12-04T10:44:12.441Z,100862
2018-12-04T10:46:41.281Z,100869
2018-12-04T10:49:10.114Z,100860
2018-12-04T10:51:38.939Z,100873
2018-12-04T10:54:08.518Z,100870
2018-12-04T10:56:37.361Z,100878
2018-12-04T10:59:06.200Z,100875
2018-12-04T11:01:40.461Z,100876
2018-12-04T11:04:09.310Z,100874
2018-12-04T11:06:38.158Z,100877
2018-12-04T11:09:07.006Z,100887
2018-12-04T11:11:35.974Z,100887
2018-12-04T11:14:04.817Z,100889
2018-12-04T11:16:33.654Z,100891
2018-12-04T11:19:02.499Z,100889
2018-12-04T11:21:31.344Z,100893
2018-12-04T11:24:00.200Z,100901
2018-12-04T11:26:29.061Z,100912
2018-12-04T11:28:57.944Z,100911
2018-12-04T11:31:26.786Z,100907
2018-12-04T11:33:55.640Z,100911
2018-12-04T11:36:24.479Z,100921
2018-12-04T11:38:54.056Z,100926
2018-12-04T11:41:22.892Z,100925
2018-12-04T11:43:52.470Z,100943
2018-12-04T11:46:21.306Z,100940
2018-12-04T11:48:50.183Z,100937
2018-12-04T11:51:18.992Z,100947
2018-12-04T11:53:47.846Z,100943
2018-12-04T11:56:17.421Z,100948
2018-12-04T11:58:46.275Z,100957
2018-12-04T12:01:15.110Z,100943
2018-12-04T12:03:43.954Z,100948
2018-12-04T12:06:12.799Z,100959
2018-12-04T12:08:41.644Z,100963
2018-12-04T12:11:10.504Z,100954
2018-12-04T12:13:39.347Z,100963
2018-12-04T12:16:08.177Z,100982
2018-12-04T12:18:37.760Z,100972
2018-12-04T12:21:06.609Z,100979
2018-12-04T12:23:35.451Z,100973
2018-12-04T12:26:04.289Z,100980
2018-12-04T12:28:33.128Z,100980
2018-12-04T12:31:02.712Z,100992
2018-12-04T12:33:31.612Z,100993
2018-12-04T12:36:00.407Z,100994
2018-12-04T12:38:29.985Z,100992
2018-12-04T12:40:58.815Z,100996
2018-12-04T12:43:27.660Z,100996
2018-12-04T12:45:56.488Z,100993
2018-12-04T12:48:25.334Z,100995
2018-12-04T12:50:54.168Z,100996
2018-12-04T12:53:22.996Z,101007
2018-12-04T12:55:51.834Z,101010
2018-12-04T12:58:20.691Z,101012
2018-12-04T13:00:49.525Z,100996
2018-12-04T13:03:18.408Z,101007
2018-12-04T13:05:47.229Z,100994
2018-12-04T13:08:16.062Z,100999
2018-12-04T13:10:44.904Z,100995
2018-12-04T13:13:13.751Z,101003
2018-12-04T13:15:42.593Z,101006
2018-12-04T13:18:11.426Z,101009
2018-12-04T13:20:40.280Z,101013
2018-12-04T13:23:09.124Z,101011
2018-12-04T13:25:38.705Z,101019
2018-12-04T13:28:07.545Z,101029
2018-12-04T13:30:36.386Z,101029
2018-12-04T13:33:05.228Z,101036
2018-12-04T13:35:34.094Z,101040
2018-12-04T13:38:03.662Z,101040
2018-12-04T13:40:32.499Z,101050
2018-12-04T13:43:01.346Z,101046
2018-12-04T13:45:30.201Z,101040
2018-12-04T13:48:00.787Z,101053
2018-12-04T13:50:28.620Z,101060
2018-12-04T13:52:57.482Z,101058
2018-12-04T13:55:26.339Z,101068
2018-12-04T13:57:55.162Z,101074
2018-12-04T14:00:24.002Z,101073
2018-12-04T14:02:52.817Z,101073
2018-12-04T14:05:21.669Z,101080
2018-12-04T14:07:50.529Z,101078
2018-12-04T14:10:19.382Z,101071
2018-12-04T14:12:48.936Z,101074
2018-12-04T14:15:17.772Z,101074
2018-12-04T14:17:47.358Z,101080
2018-12-04T14:20:16.978Z,101087
2018-12-04T14:22:45.800Z,101095
2018-12-04T14:25:14.691Z,101094
2018-12-04T14:27:44.243Z,101094
2018-12-04T14:30:13.097Z,101100
2018-12-04T14:32:41.930Z,101108
2018-12-04T14:35:10.782Z,101108
2018-12-04T14:37:39.628Z,101105
2018-12-04T14:40:08.504Z,101104
2018-12-04T14:42:37.310Z,101117
2018-12-04T14:45:06.147Z,101126
2018-12-04T14:47:36.026Z,101125
2018-12-04T14:50:04.830Z,101126
2018-12-04T14:52:33.680Z,101132
2018-12-04T14:55:03.256Z,101144
2018-12-04T14:57:44.829Z,101141
2018-12-04T15:00:13.671Z,101151
2018-12-04T15:02:42.500Z,101161
2018-12-04T15:05:11.344Z,101166
2018-12-04T15:07:40.921Z,101162
2018-12-04T15:10:10.367Z,101173
2018-12-04T15:12:39.174Z,101170
2018-12-04T15:15:08.071Z,101180
2018-12-04T15:17:37.626Z,101180
2018-12-04T15:20:06.432Z,101183
2018-12-04T15:22:35.274Z,101182
2018-12-04T15:25:04.127Z,101184
2018-12-04T15:27:33.014Z,101197
2018-12-04T15:30:01.848Z,101199
2018-12-04T15:32:30.640Z,101206
2018-12-04T15:34:59.483Z,101205
2018-12-04T15:37:28.357Z,101206
2018-12-04T15:39:57.195Z,101215
2018-12-04T15:42:26.004Z,101218
2018-12-04T15:44:54.877Z,101212
2018-12-04T15:47:23.681Z,101215
2018-12-04T15:49:52.541Z,101215
2018-12-04T15:52:21.402Z,101210
2018-12-04T15:54:51.003Z,101213
2018-12-04T15:57:19.790Z,101223
2018-12-04T15:59:48.630Z,101229
2018-12-04T16:02:17.526Z,101225
2018-12-04T16:04:46.377Z,101229
2018-12-04T16:07:15.221Z,101231
2018-12-04T16:09:44.821Z,101234
2018-12-04T16:12:13.646Z,101232
2018-12-04T16:14:42.497Z,101235
2018-12-04T16:17:15.225Z,101233
2018-12-04T16:19:40.192Z,101230
2018-12-04T16:22:09.034Z,101247
2018-12-04T16:24:37.874Z,101253
2018-12-04T16:27:06.729Z,101254
2018-12-04T16:29:35.573Z,101260
2018-12-04T16:32:04.423Z,101256
2018-12-04T16:34:33.288Z,101262
2018-12-04T16:37:02.096Z,101261
2018-12-04T16:39:30.931Z,101278
2018-12-04T16:41:59.763Z,101279
2018-12-04T16:44:28.622Z,101288
2018-12-04T16:46:57.448Z,101287
2018-12-04T16:49:26.283Z,101277
2018-12-04T16:51:55.140Z,101280
2018-12-04T16:54:23.992Z,101287
2018-12-04T16:56:52.835Z,101283
2018-12-04T16:59:21.698Z,101299
2018-12-04T17:01:50.561Z,101295
2018-12-04T17:04:19.401Z,101305
2018-12-04T17:06:48.253Z,101308
2018-12-04T17:09:17.088Z,101308
2018-12-04T17:11:45.941Z,101306
2018-12-04T17:14:14.805Z,101311
2018-12-04T17:16:43.670Z,101306
2018-12-04T17:19:12.523Z,101321
2018-12-04T17:21:41.395Z,101317
2018-12-04T17:24:10.250Z,101325
2018-12-04T17:26:39.095Z,101324
2018-12-04T17:29:07.940Z,101324
2018-12-04T17:31:36.785Z,101329
2018-12-04T17:34:05.634Z,101334
2018-12-04T17:36:34.481Z,101342
2018-12-04T17:39:03.326Z,101345
2018-12-04T17:41:32.186Z,101341
2018-12-04T17:44:01.034Z,101344
2018-12-04T17:46:29.869Z,101342
2018-12-04T17:48:58.730Z,101338
2018-12-04T17:51:27.582Z,101346
2018-12-04T17:53:56.445Z,101355
2018-12-04T17:56:25.310Z,101349
2018-12-04T17:58:54.202Z,101343
2018-12-04T18:01:23.040Z,101349
2018-12-04T18:03:52.618Z,101341
2018-12-04T18:06:21.486Z,101344
2018-12-04T18:08:50.332Z,101333
2018-12-04T18:11:19.913Z,101331
2018-12-04T18:13:49.340Z,101344
2018-12-04T18:16:18.182Z,101343
2018-12-04T18:18:47.027Z,101342
2018-12-04T18:21:15.873Z,101349
2018-12-04T18:23:44.714Z,101359
2018-12-04T18:26:13.555Z,101374
2018-12-04T18:28:42.408Z,101379
2018-12-04T18:31:11.266Z,101386
2018-12-04T18:33:40.123Z,101384
2018-12-04T18:36:08.975Z,101380
2018-12-04T18:38:37.842Z,101379
2018-12-04T18:41:07.438Z,101385
2018-12-04T18:43:36.240Z,101389
2018-12-04T18:46:05.173Z,101400
2018-12-04T18:48:34.037Z,101402
2018-12-04T18:51:02.947Z,101405
2018-12-04T18:53:31.771Z,101415
2018-12-04T18:56:00.649Z,101408
2018-12-04T18:58:29.510Z,101399
2018-12-04T19:00:58.394Z,101397
2018-12-04T19:03:27.261Z,101404
2018-12-04T19:05:56.073Z,101397
2018-12-04T19:08:24.928Z,101405
2018-12-04T19:10:54.500Z,101402
2018-12-04T19:13:23.349Z,101401
2018-12-04T19:15:52.198Z,101412
2018-12-04T19:18:21.031Z,101407
2018-12-04T19:20:49.876Z,101414
2018-12-04T19:23:18.772Z,101409
2018-12-04T19:25:47.595Z,101420
2018-12-04T19:28:16.446Z,101413
2018-12-04T19:30:46.084Z,101408
2018-12-04T19:33:14.904Z,101401
2018-12-04T19:35:43.745Z,101405
2018-12-04T19:38:12.601Z,101410
2018-12-04T19:40:41.451Z,101404
2018-12-04T19:43:10.317Z,101401
2018-12-04T19:45:39.848Z,101409
2018-12-04T19:48:09.041Z,101406
2018-12-04T19:50:37.784Z,101418
2018-12-04T19:53:06.821Z,101418
2018-12-04T19:55:35.669Z,101418
2018-12-04T19:58:05.264Z,101420
2018-12-04T20:00:34.857Z,101420
2018-12-04T20:03:03.809Z,101439
2018-12-04T20:05:33.522Z,101419
2018-12-04T20:08:02.389Z,101421
2018-12-04T20:10:31.244Z,101413
2018-12-04T20:13:00.104Z,101425
2018-12-04T20:15:28.971Z,101407
2018-12-04T20:17:57.815Z,101419
2018-12-04T20:20:26.718Z,101420
2018-12-04T20:22:55.591Z,101422
2018-12-04T20:25:24.410Z,101425
2018-12-04T20:27:54.076Z,101431
2018-12-04T20:30:22.889Z,101431
2018-12-04T20:32:51.799Z,101432
2018-12-04T20:35:20.620Z,101440
2018-12-04T20:37:49.459Z,101442
2018-12-04T20:40:18.338Z,101447
2018-12-04T20:42:47.193Z,101448
2018-12-04T20:45:16.037Z,101458
2018-12-04T20:47:44.877Z,101463
2018-12-04T20:50:13.729Z,101473
2018-12-04T20:52:42.572Z,101471
2018-12-04T20:55:11.414Z,101472
2018-12-04T20:57:40.275Z,101465
2018-12-04T21:00:09.114Z,101471
2018-12-04T21:02:37.966Z,101472
2018-12-04T21:05:07.561Z,101480
2018-12-04T21:07:37.155Z,101475
2018-12-04T21:10:06.583Z,101467
2018-12-04T21:12:35.461Z,101459
2018-12-04T21:15:05.045Z,101467
2018-12-04T21:17:33.898Z,101465
2018-12-04T21:20:02.807Z,101477
2018-12-04T21:22:31.619Z,101474
2018-12-04T21:25:00.491Z,101485
2018-12-04T21:27:35.210Z,101488
2018-12-04T21:30:09.459Z,101476
2018-12-04T21:32:43.700Z,101480
2018-12-04T21:35:17.992Z,101473
2018-12-04T21:37:53.149Z,101480
2018-12-04T21:40:28.327Z,101480
2018-12-04T21:43:02.692Z,101480
2018-12-04T21:45:36.962Z,101481
2018-12-04T21:48:05.813Z,101482
2018-12-04T21:50:34.674Z,101490
2018-12-04T21:53:04.110Z,101489
2018-12-04T21:55:32.960Z,101481
2018-12-04T21:58:01.836Z,101482
2018-12-04T22:00:30.710Z,101481
2018-12-04T22:02:59.555Z,101481
2018-12-04T22:05:29.150Z,101480
2018-12-04T22:07:57.990Z,101481
2018-12-04T22:10:26.846Z,101487
2018-12-04T22:12:55.710Z,101484
2018-12-04T22:15:24.642Z,101493
2018-12-04T22:17:53.427Z,101493
2018-12-04T22:20:22.310Z,101493
2018-12-04T22:22:51.196Z,101501
2018-12-04T22:25:20.793Z,101498
2018-12-04T22:27:49.646Z,101503
2018-12-04T22:30:18.484Z,101518
2018-12-04T22:32:47.372Z,101518
2018-12-04T22:35:16.215Z,101511
2018-12-04T22:37:45.053Z,101515
2018-12-04T22:40:13.902Z,101522
2018-12-04T22:42:42.748Z,101537
2018-12-04T22:45:17.059Z,101524
2018-12-04T22:47:45.915Z,101521
2018-12-04T22:50:14.760Z,101516
2018-12-04T22:52:43.621Z,101518
2018-12-04T22:55:12.478Z,101510
2018-12-04T22:57:41.336Z,101514
2018-12-04T23:02:52.158Z,101518
2018-12-04T23:05:21.017Z,101527
2018-12-04T23:07:49.864Z,101520
2018-12-04T23:10:18.738Z,101514
2018-12-04T23:12:47.586Z,101506
2018-12-04T23:15:16.417Z,101495
2018-12-04T23:17:45.264Z,101504
2018-12-04T23:20:14.099Z,101495
2018-12-04T23:22:42.943Z,101500
2018-12-04T23:25:11.793Z,101495
2018-12-04T23:27:40.651Z,101494
2018-12-04T23:30:09.508Z,101494
2018-12-04T23:32:38.341Z,101493
2018-12-04T23:35:07.933Z,101491
2018-12-04T23:37:36.780Z,101489
2018-12-04T23:40:05.616Z,101488
2018-12-04T23:42:35.199Z,101488
2018-12-04T23:45:04.626Z,101489
2018-12-04T23:47:34.232Z,101487
2018-12-04T23:50:03.819Z,101489
2018-12-04T23:52:32.652Z,101492
2018-12-04T23:55:01.538Z,101480
2018-12-04T23:57:30.374Z,101488
2018-12-04T23:59:59.222Z,101475
